Time,TemperatureF,DewpointF,PressureIn,WindDirection,WindDirectionDegrees,WindSpeedMPH,WindSpeedGustMPH,Humidity,HourlyPrecipIn,Conditions,Clouds,dailyrainin,SoftwareType,DateUTC
2013-02-01 00:00:00,30.2,19.5,30.00,West,276,0.0,4.0,64,0.00,RA,,0.00,WeatherDisplay:10.37,2013-02-01 05:00:00,
2013-02-01 00:15:00,30.6,19.9,29.99,WSW,242,1.0,5.0,64,0.00,CLR,,0.00,WeatherDisplay:10.37,2013-02-01 05:15:00,
2013-02-01 00:30:00,31.3,20.2,29.99,South,172,1.0,4.0,63,0.00,CLR,,0.00,WeatherDisplay:10.37,2013-02-01 05:30:00,
2013-02-01 00:45:00,31.5,20.7,29.99,SSE,163,1.0,6.0,64,0.00,CLR,,0.00,WeatherDisplay:10.37,2013-02-01 05:45:00,
2013-02-01 01:00:00,31.9,21.1,29.98,SW,227,2.0,9.0,64,0.00,CLR,,0.00,WeatherDisplay:10.37,2013-02-01 06:00:00,
2013-02-01 01:15:00,32.7,21.5,29.98,South,181,1.0,10.0,63,0.00,CLR,,0.00,WeatherDisplay:10.37,2013-02-01 06:15:00,
2013-02-01 01:30:00,33.3,22.1,29.97,SSW,209,3.0,7.0,63,0.00,CLR,,0.00,WeatherDisplay:10.37,2013-02-01 06:30:00,
2013-02-01 01:45:00,33.5,22.2,29.96,SSW,196,2.0,7.0,63,0.00,CLR,,0.00,WeatherDisplay:10.37,2013-02-01 06:45:00,
2013-02-01 02:00:00,33.6,22.3,29.95,South,173,2.0,9.0,63,0.00,CLR,,0.00,WeatherDisplay:10.37,2013-02-01 07:00:00,
2013-02-01 02:15:00,33.7,22.4,29.94,South,183,2.0,7.0,63,0.00,CLR,,0.00,WeatherDisplay:10.37,2013-02-01 07:15:00,
2013-02-01 02:30:00,33.8,22.5,29.94,SSW,193,2.0,12.0,63,0.00,CLR,,0.00,WeatherDisplay:10.37,2013-02-01 07:30:00,
2013-02-01 02:45:00,33.9,22.6,29.93,SSW,209,1.0,12.0,63,0.00,CLR,,0.00,WeatherDisplay:10.37,2013-02-01 07:45:00,
2013-02-01 03:00:00,34.1,22.8,29.92,SSW,205,2.0,10.0,63,0.00,CLR,,0.00,WeatherDisplay:10.37,2013-02-01 08:00:00,
2013-02-01 03:15:00,34.9,23.6,29.91,SSW,209,2.0,10.0,63,0.00,CLR,,0.00,WeatherDisplay:10.37,2013-02-01 08:15:00,
2013-02-01 03:30:00,35.5,24.1,29.90,SW,227,3.0,9.0,63,0.00,CLR,,0.00,WeatherDisplay:10.37,2013-02-01 08:30:00,
2013-02-01 03:45:00,35.9,24.5,29.89,SW,224,6.0,12.0,63,0.00,CLR,,0.00,WeatherDisplay:10.37,2013-02-01 08:45:00,
2013-02-01 04:00:00,36.5,24.3,29.89,SW,226,6.0,14.0,61,0.00,CLR,,0.00,WeatherDisplay:10.37,2013-02-01 09:00:00,
2013-02-01 04:15:00,36.8,24.6,29.89,SW,216,2.0,12.0,61,0.00,CLR,,0.00,WeatherDisplay:10.37,2013-02-01 09:15:00,
2013-02-01 04:30:00,36.9,25.1,29.89,SW,220,3.0,10.0,62,0.00,FEW,,0.00,WeatherDisplay:10.37,2013-02-01 09:30:00,
2013-02-01 04:45:00,37.0,24.8,29.90,SW,235,5.0,10.0,61,0.00,FEW,,0.00,WeatherDisplay:10.37,2013-02-01 09:45:00,
2013-02-01 05:00:00,37.3,24.7,29.92,WSW,253,3.0,12.0,60,0.00,FEW,,0.00,WeatherDisplay:10.37,2013-02-01 10:00:00,
2013-02-01 05:15:00,37.4,24.8,29.92,West,261,1.0,9.0,60,0.00,FEW,,0.00,WeatherDisplay:10.37,2013-02-01 10:15:00,
2013-02-01 05:30:00,37.0,24.8,29.93,West,260,5.0,10.0,61,0.00,OVC,,0.00,WeatherDisplay:10.37,2013-02-01 10:30:00,
2013-02-01 05:45:00,37.0,25.2,29.95,WSW,244,1.0,7.0,62,0.00,OVC,,0.00,WeatherDisplay:10.37,2013-02-01 10:45:00,
2013-02-01 06:00:00,37.2,25.4,29.96,West,265,5.0,8.0,62,0.00,OVC,,0.00,WeatherDisplay:10.37,2013-02-01 11:00:00,
2013-02-01 06:15:00,37.6,25.4,29.98,WNW,285,5.0,13.0,61,0.00,OVC,,0.00,WeatherDisplay:10.37,2013-02-01 11:15:00,
2013-02-01 06:30:00,37.6,26.2,30.01,NW,322,13.0,24.0,63,0.00,OVC,,0.00,WeatherDisplay:10.37,2013-02-01 11:30:00,
2013-02-01 06:45:00,35.9,22.9,30.03,NW,314,10.0,22.0,59,0.00,OVC,,0.00,WeatherDisplay:10.37,2013-02-01 11:45:00,
2013-02-01 07:00:00,34.9,20.8,30.05,WNW,297,10.0,21.0,56,0.00,OVC,,0.00,WeatherDisplay:10.37,2013-02-01 12:00:00,
2013-02-01 07:15:00,33.8,18.9,30.06,WNW,303,7.0,18.0,54,0.00,OVC,,0.00,WeatherDisplay:10.37,2013-02-01 12:15:00,
2013-02-01 07:30:00,33.3,18.8,30.09,NW,305,6.0,21.0,55,0.00,OVC,,0.00,WeatherDisplay:10.37,2013-02-01 12:30:00,
2013-02-01 07:45:00,32.6,16.9,30.11,NW,324,7.0,13.0,52,0.00,OVC,,0.00,WeatherDisplay:10.37,2013-02-01 12:45:00,
2013-02-01 08:00:00,31.6,14.1,30.12,NW,306,8.0,22.0,48,0.00,OVC,,0.00,WeatherDisplay:10.37,2013-02-01 13:00:00,
2013-02-01 08:15:00,31.1,13.7,30.13,NW,311,8.0,21.0,48,0.00,OVC,,0.00,WeatherDisplay:10.37,2013-02-01 13:15:00,
2013-02-01 08:30:00,31.0,11.6,30.15,NW,309,9.0,23.0,44,0.00,CLR,,0.00,WeatherDisplay:10.37,2013-02-01 13:30:00,
2013-02-01 08:45:00,30.4,12.6,30.17,NW,320,7.0,18.0,47,0.00,CLR,,0.00,WeatherDisplay:10.37,2013-02-01 13:45:00,
2013-02-01 09:00:00,30.0,12.2,30.18,NW,318,7.0,20.0,47,0.00,CLR,,0.00,WeatherDisplay:10.37,2013-02-01 14:00:00,
2013-02-01 09:15:00,29.8,10.0,30.19,NW,326,12.0,20.0,43,0.00,CLR,,0.00,WeatherDisplay:10.37,2013-02-01 14:15:00,
2013-02-01 09:30:00,29.1,7.7,30.20,NW,321,9.0,22.0,40,0.00,CLR,,0.00,WeatherDisplay:10.37,2013-02-01 14:30:00,
2013-02-01 09:45:00,29.0,5.9,30.21,NNW,334,9.0,20.0,37,0.00,CLR,,0.00,WeatherDisplay:10.37,2013-02-01 14:45:00,
2013-02-01 10:00:00,28.9,4.6,30.22,NW,317,7.0,20.0,35,0.00,CLR,,0.00,WeatherDisplay:10.37,2013-02-01 15:00:00,
2013-02-01 10:15:00,29.1,3.5,30.24,NNW,332,9.0,20.0,33,0.00,CLR,,0.00,WeatherDisplay:10.37,2013-02-01 15:15:00,
2013-02-01 10:30:00,29.2,3.6,30.25,NW,309,7.0,16.0,33,0.00,CLR,,0.00,WeatherDisplay:10.37,2013-02-01 15:30:00,
2013-02-01 10:45:00,29.5,3.9,30.25,NNW,340,8.0,20.0,33,0.00,CLR,,0.00,WeatherDisplay:10.37,2013-02-01 15:45:00,
2013-02-01 11:00:00,29.5,3.2,30.26,NW,322,6.0,17.0,32,0.00,CLR,,0.00,WeatherDisplay:10.37,2013-02-01 16:00:00,
2013-02-01 11:15:00,30.1,4.4,30.27,NNW,343,5.0,15.0,33,0.00,CLR,,0.00,WeatherDisplay:10.37,2013-02-01 16:15:00,
2013-02-01 11:30:00,30.3,4.6,30.27,NNW,330,7.0,17.0,33,0.00,CLR,,0.00,WeatherDisplay:10.37,2013-02-01 16:30:00,
2013-02-01 11:45:00,30.5,4.7,30.28,NNW,332,6.0,18.0,33,0.00,CLR,,0.00,WeatherDisplay:10.37,2013-02-01 16:45:00,
2013-02-01 12:00:00,30.5,4.8,30.28,NNW,337,6.0,17.0,33,0.00,CLR,,0.00,WeatherDisplay:10.37,2013-02-01 17:00:00,
2013-02-01 12:15:00,31.1,5.3,30.28,NW,305,9.0,15.0,33,0.00,CLR,,0.00,WeatherDisplay:10.37,2013-02-01 17:15:00,
2013-02-01 12:30:00,31.4,5.6,30.27,WNW,284,5.0,16.0,33,0.00,CLR,,0.00,WeatherDisplay:10.37,2013-02-01 17:30:00,
2013-02-01 12:45:00,31.6,5.1,30.27,NW,311,3.0,16.0,32,0.00,CLR,,0.00,WeatherDisplay:10.37,2013-02-01 17:45:00,
2013-02-01 13:00:00,32.2,4.9,30.26,NW,319,9.0,13.0,31,0.00,CLR,,0.00,WeatherDisplay:10.37,2013-02-01 18:00:00,
2013-02-01 13:15:00,32.2,5.6,30.26,West,277,2.0,15.0,32,0.00,CLR,,0.00,WeatherDisplay:10.37,2013-02-01 18:15:00,
2013-02-01 13:30:00,33.1,7.1,30.26,WNW,291,5.0,12.0,33,0.00,CLR,,0.00,WeatherDisplay:10.37,2013-02-01 18:30:00,
2013-02-01 13:45:00,33.5,6.7,30.26,WNW,292,7.0,15.0,32,0.00,CLR,,0.00,WeatherDisplay:10.37,2013-02-01 18:45:00,
2013-02-01 14:00:00,33.7,6.9,30.26,WSW,256,3.0,12.0,32,0.00,CLR,,0.00,WeatherDisplay:10.37,2013-02-01 19:00:00,
2013-02-01 14:15:00,33.8,6.3,30.27,WNW,297,6.0,15.0,31,0.00,CLR,,0.00,WeatherDisplay:10.37,2013-02-01 19:15:00,
2013-02-01 14:30:00,34.0,5.8,30.27,WNW,289,5.0,16.0,30,0.00,CLR,,0.00,WeatherDisplay:10.37,2013-02-01 19:30:00,
2013-02-01 14:45:00,33.8,4.8,30.28,WNW,285,5.0,14.0,29,0.00,CLR,,0.00,WeatherDisplay:10.37,2013-02-01 19:45:00,
2013-02-01 15:00:00,34.0,5.0,30.27,NW,322,5.0,12.0,29,0.00,CLR,,0.00,WeatherDisplay:10.37,2013-02-01 20:00:00,
2013-02-01 15:15:00,34.3,4.5,30.28,WNW,297,2.0,15.0,28,0.00,CLR,,0.00,WeatherDisplay:10.37,2013-02-01 20:15:00,
2013-02-01 15:30:00,34.1,3.5,30.28,WNW,297,9.0,15.0,27,0.00,CLR,,0.00,WeatherDisplay:10.37,2013-02-01 20:30:00,
2013-02-01 15:45:00,33.6,3.1,30.28,West,278,5.0,12.0,27,0.00,CLR,,0.00,WeatherDisplay:10.37,2013-02-01 20:45:00,
2013-02-01 16:00:00,33.3,2.9,30.28,WNW,285,3.0,13.0,27,0.00,CLR,,0.00,WeatherDisplay:10.37,2013-02-01 21:00:00,
2013-02-01 16:15:00,33.3,2.9,30.28,NW,317,6.0,13.0,27,0.00,CLR,,0.00,WeatherDisplay:10.37,2013-02-01 21:15:00,
2013-02-01 16:30:00,33.1,2.7,30.28,NW,318,6.0,15.0,27,0.00,CLR,,0.00,WeatherDisplay:10.37,2013-02-01 21:30:00,
2013-02-01 16:45:00,32.8,3.2,30.29,WNW,302,2.0,10.0,28,0.00,CLR,,0.00,WeatherDisplay:10.37,2013-02-01 21:45:00,
2013-02-01 17:00:00,32.5,2.9,30.29,NNW,341,3.0,9.0,28,0.00,CLR,,0.00,WeatherDisplay:10.37,2013-02-01 22:00:00,
2013-02-01 17:15:00,32.1,2.6,30.30,NW,305,2.0,12.0,28,0.00,CLR,,0.00,WeatherDisplay:10.37,2013-02-01 22:15:00,
2013-02-01 17:30:00,31.8,3.1,30.30,NW,325,2.0,15.0,29,0.00,CLR,,0.00,WeatherDisplay:10.37,2013-02-01 22:30:00,
2013-02-01 17:45:00,31.2,1.8,30.30,NW,314,2.0,10.0,28,0.00,CLR,,0.00,WeatherDisplay:10.37,2013-02-01 22:45:00,
2013-02-01 18:00:00,30.6,2.8,30.30,NW,312,2.0,9.0,30,0.00,CLR,,0.00,WeatherDisplay:10.37,2013-02-01 23:00:00,
2013-02-01 18:15:00,29.8,2.8,30.31,NW,317,1.0,5.0,31,0.00,CLR,,0.00,WeatherDisplay:10.37,2013-02-01 23:15:00,
2013-02-01 18:30:00,28.9,3.4,30.32,NW,317,1.0,4.0,33,0.00,CLR,,0.00,WeatherDisplay:10.37,2013-02-01 23:30:00,
2013-02-01 18:45:00,28.2,3.4,30.32,NW,317,2.0,6.0,34,0.00,CLR,,0.00,WeatherDisplay:10.37,2013-02-01 23:45:00,
2013-02-01 19:00:00,27.8,3.0,30.33,NW,319,1.0,7.0,34,0.00,CLR,,0.00,WeatherDisplay:10.37,2013-02-02 00:00:00,
2013-02-01 19:15:00,27.4,3.3,30.33,NW,319,1.0,3.0,35,0.00,CLR,,0.00,WeatherDisplay:10.37,2013-02-02 00:15:00,
2013-02-01 19:30:00,26.9,3.4,30.33,NW,319,1.0,4.0,36,0.00,CLR,,0.00,WeatherDisplay:10.37,2013-02-02 00:30:00,
2013-02-01 19:45:00,26.6,3.2,30.34,NW,319,1.0,4.0,36,0.00,CLR,,0.00,WeatherDisplay:10.37,2013-02-02 00:45:00,
2013-02-01 20:00:00,26.4,4.2,30.35,NW,319,0.0,4.0,38,0.00,CLR,,0.00,WeatherDisplay:10.37,2013-02-02 01:00:00,
2013-02-01 20:15:00,25.7,5.2,30.35,NW,319,1.0,2.0,41,0.00,CLR,,0.00,WeatherDisplay:10.37,2013-02-02 01:15:00,
2013-02-01 20:30:00,25.4,4.4,30.36,NW,319,1.0,4.0,40,0.00,CLR,,0.00,WeatherDisplay:10.37,2013-02-02 01:30:00,
2013-02-01 20:45:00,25.2,4.7,30.37,NW,319,0.0,2.0,41,0.00,CLR,,0.00,WeatherDisplay:10.37,2013-02-02 01:45:00,
2013-02-01 21:00:00,24.5,4.6,30.38,NW,319,0.0,1.0,42,0.00,CLR,,0.00,WeatherDisplay:10.37,2013-02-02 02:00:00,
2013-02-01 21:15:00,24.1,4.8,30.38,NW,319,0.0,3.0,43,0.00,CLR,,0.00,WeatherDisplay:10.37,2013-02-02 02:15:00,
2013-02-01 21:30:00,24.0,4.7,30.37,NW,319,1.0,3.0,43,0.00,CLR,,0.00,WeatherDisplay:10.37,2013-02-02 02:30:00,
2013-02-01 21:45:00,24.0,4.7,30.37,NW,319,0.0,3.0,43,0.00,CLR,,0.00,WeatherDisplay:10.37,2013-02-02 02:45:00,
2013-02-01 22:00:00,23.6,5.3,30.37,NW,319,0.0,2.0,45,0.00,CLR,,0.00,WeatherDisplay:10.37,2013-02-02 03:00:00,
2013-02-01 22:15:00,23.1,5.8,30.37,NW,319,0.0,3.0,47,0.00,CLR,,0.00,WeatherDisplay:10.37,2013-02-02 03:15:00,
2013-02-01 22:30:00,23.0,5.2,30.37,NNW,335,1.0,5.0,46,0.00,CLR,,0.00,WeatherDisplay:10.37,2013-02-02 03:30:00,
2013-02-01 22:45:00,23.4,5.2,30.37,NNW,336,0.0,4.0,45,0.00,CLR,,0.00,WeatherDisplay:10.37,2013-02-02 03:45:00,
2013-02-01 23:00:00,23.3,5.1,30.37,NNW,336,0.0,3.0,45,0.00,CLR,,0.00,WeatherDisplay:10.37,2013-02-02 04:00:00,
2013-02-01 23:15:00,23.1,6.7,30.37,NNW,336,0.0,2.0,49,0.00,CLR,,0.00,WeatherDisplay:10.37,2013-02-02 04:15:00,
2013-02-01 23:30:00,22.9,5.6,30.37,NNW,336,1.0,4.0,47,0.00,CLR,,0.00,WeatherDisplay:10.37,2013-02-02 04:30:00,
2013-02-01 23:45:00,22.5,7.1,30.37,NNW,336,1.0,2.0,51,0.00,CLR,,0.00,WeatherDisplay:10.37,2013-02-02 04:45:00,